sensor_id;sensor_type;location;lat;lon;timestamp;pressure;altitude;pressure_sealevel;temperature;humidity
51999;BME280;38015;50.924;11.598;2023-01-01T00:00:19;99334.87;;;19.54;37.13
51999;BME280;38015;50.924;11.598;2023-01-01T00:02:49;99332.48;;;19.56;37.09
51999;BME280;38015;50.924;11.598;2023-01-01T00:05:19;99328.00;;;19.52;37.15
51999;BME280;38015;50.924;11.598;2023-01-01T00:07:50;99332.94;;;19.50;37.17
51999;BME280;38015;50.924;11.598;2023-01-01T00:10:20;99336.00;;;19.60;36.97
51999;BME280;38015;50.924;11.598;2023-01-01T00:12:51;99338.80;;;19.43;37.29
51999;BME280;38015;50.924;11.598;2023-01-01T00:15:21;99344.74;;;19.50;37.12
51999;BME280;38015;50.924;11.598;2023-01-01T00:17:52;99344.10;;;19.53;37.05
51999;BME280;38015;50.924;11.598;2023-01-01T00:20:22;99347.52;;;19.61;36.85
51999;BME280;38015;50.924;11.598;2023-01-01T00:22:53;99350.56;;;19.64;36.78
51999;BME280;38015;50.924;11.598;2023-01-01T00:25:24;99347.36;;;19.51;37.03
51999;BME280;38015;50.924;11.598;2023-01-01T00:27:53;99351.27;;;19.67;36.64
51999;BME280;38015;50.924;11.598;2023-01-01T00:30:24;99351.52;;;19.57;36.84
51999;BME280;38015;50.924;11.598;2023-01-01T00:32:54;99352.06;;;19.36;37.30
51999;BME280;38015;50.924;11.598;2023-01-01T00:35:25;99358.45;;;19.57;36.87
51999;BME280;38015;50.924;11.598;2023-01-01T00:37:55;99357.76;;;19.59;36.81
51999;BME280;38015;50.924;11.598;2023-01-01T00:40:26;99351.11;;;19.58;36.79
51999;BME280;38015;50.924;11.598;2023-01-01T00:42:56;99359.06;;;19.54;36.85
51999;BME280;38015;50.924;11.598;2023-01-01T00:45:27;99353.10;;;19.52;36.85
51999;BME280;38015;50.924;11.598;2023-01-01T00:47:57;99356.71;;;19.54;36.82
51999;BME280;38015;50.924;11.598;2023-01-01T00:50:28;99358.04;;;19.54;36.79
51999;BME280;38015;50.924;11.598;2023-01-01T00:52:59;99361.53;;;19.49;36.93
51999;BME280;38015;50.924;11.598;2023-01-01T00:55:29;99362.76;;;19.55;36.78
51999;BME280;38015;50.924;11.598;2023-01-01T00:58:00;99359.62;;;19.43;36.96
51999;BME280;38015;50.924;11.598;2023-01-01T01:00:29;99362.24;;;19.63;36.63
51999;BME280;38015;50.924;11.598;2023-01-01T01:03:01;99353.67;;;19.53;36.75
51999;BME280;38015;50.924;11.598;2023-01-01T01:05:31;99350.38;;;19.51;36.78
51999;BME280;38015;50.924;11.598;2023-01-01T01:08:01;99357.28;;;19.52;36.77
51999;BME280;38015;50.924;11.598;2023-01-01T01:10:31;99356.71;;;19.53;36.73
51999;BME280;38015;50.924;11.598;2023-01-01T01:13:02;99365.94;;;19.46;36.84
51999;BME280;38015;50.924;11.598;2023-01-01T01:15:32;99360.52;;;19.57;36.62
51999;BME280;38015;50.924;11.598;2023-01-01T01:18:03;99364.25;;;19.60;36.55
51999;BME280;38015;50.924;11.598;2023-01-01T01:20:33;99363.95;;;19.46;36.85
51999;BME280;38015;50.924;11.598;2023-01-01T01:23:04;99365.14;;;19.58;36.57
51999;BME280;38015;50.924;11.598;2023-01-01T01:25:34;99366.15;;;19.57;36.56
51999;BME280;38015;50.924;11.598;2023-01-01T01:28:05;99363.81;;;19.55;36.65
51999;BME280;38015;50.924;11.598;2023-01-01T01:30:36;99360.24;;;19.51;36.67
51999;BME280;38015;50.924;11.598;2023-01-01T01:33:06;99368.32;;;19.46;36.77
51999;BME280;38015;50.924;11.598;2023-01-01T01:35:36;99368.88;;;19.59;36.53
51999;BME280;38015;50.924;11.598;2023-01-01T01:38:08;99371.81;;;19.44;36.82
51999;BME280;38015;50.924;11.598;2023-01-01T01:40:41;99369.05;;;19.41;36.85
51999;BME280;38015;50.924;11.598;2023-01-01T01:43:18;99364.89;;;19.53;36.63
51999;BME280;38015;50.924;11.598;2023-01-01T01:45:38;99363.21;;;19.56;36.51
51999;BME280;38015;50.924;11.598;2023-01-01T01:48:09;99366.56;;;19.43;36.79
51999;BME280;38015;50.924;11.598;2023-01-01T01:50:40;99363.35;;;19.51;36.64
51999;BME280;38015;50.924;11.598;2023-01-01T01:53:16;99365.63;;;19.59;36.50
51999;BME280;38015;50.924;11.598;2023-01-01T01:55:45;99361.61;;;19.56;36.54
51999;BME280;38015;50.924;11.598;2023-01-01T01:58:13;99361.94;;;19.59;36.46
51999;BME280;38015;50.924;11.598;2023-01-01T02:00:43;99360.06;;;19.49;36.64
51999;BME280;38015;50.924;11.598;2023-01-01T02:03:15;99359.49;;;19.65;36.29
51999;BME280;38015;50.924;11.598;2023-01-01T02:05:43;99360.73;;;19.63;36.34
51999;BME280;38015;50.924;11.598;2023-01-01T02:08:14;99359.01;;;19.58;36.39
51999;BME280;38015;50.924;11.598;2023-01-01T02:10:44;99361.73;;;19.57;36.39
51999;BME280;38015;50.924;11.598;2023-01-01T02:13:14;99353.78;;;19.47;36.63
51999;BME280;38015;50.924;11.598;2023-01-01T02:15:51;99355.91;;;19.58;36.41
51999;BME280;38015;50.924;11.598;2023-01-01T02:18:19;99350.30;;;19.55;36.42
51999;BME280;38015;50.924;11.598;2023-01-01T02:20:49;99357.02;;;19.57;36.38
51999;BME280;38015;50.924;11.598;2023-01-01T02:23:27;99351.55;;;19.54;36.41
51999;BME280;38015;50.924;11.598;2023-01-01T02:25:58;99355.30;;;19.65;36.20
51999;BME280;38015;50.924;11.598;2023-01-01T02:30:48;99356.98;;;19.73;35.94
51999;BME280;38015;50.924;11.598;2023-01-01T02:33:21;99362.20;;;19.63;36.12
51999;BME280;38015;50.924;11.598;2023-01-01T02:35:52;99362.68;;;19.62;36.12
51999;BME280;38015;50.924;11.598;2023-01-01T02:38:23;99360.09;;;19.56;36.26
51999;BME280;38015;50.924;11.598;2023-01-01T02:40:53;99355.56;;;19.54;36.28
51999;BME280;38015;50.924;11.598;2023-01-01T02:43:20;99353.28;;;19.56;36.19
51999;BME280;38015;50.924;11.598;2023-01-01T02:45:52;99360.25;;;19.57;36.19
51999;BME280;38015;50.924;11.598;2023-01-01T02:50:52;99353.52;;;19.68;35.92
51999;BME280;38015;50.924;11.598;2023-01-01T02:53:27;99361.90;;;19.67;35.92
51999;BME280;38015;50.924;11.598;2023-01-01T02:55:59;99359.47;;;19.61;36.06
51999;BME280;38015;50.924;11.598;2023-01-01T02:58:28;99357.68;;;19.60;36.09
51999;BME280;38015;50.924;11.598;2023-01-01T03:01:00;99360.80;;;19.64;35.97
51999;BME280;38015;50.924;11.598;2023-01-01T03:03:27;99357.29;;;19.69;35.90
51999;BME280;38015;50.924;11.598;2023-01-01T03:06:00;99360.99;;;19.73;35.84
51999;BME280;38015;50.924;11.598;2023-01-01T03:08:30;99369.04;;;19.65;35.96
51999;BME280;38015;50.924;11.598;2023-01-01T03:11:01;99376.30;;;19.70;35.87
51999;BME280;38015;50.924;11.598;2023-01-01T03:13:30;99380.14;;;19.78;35.71
51999;BME280;38015;50.924;11.598;2023-01-01T03:15:59;99376.51;;;19.78;35.65
51999;BME280;38015;50.924;11.598;2023-01-01T03:18:31;99376.11;;;19.72;35.78
51999;BME280;38015;50.924;11.598;2023-01-01T03:21:01;99367.95;;;19.70;35.83
51999;BME280;38015;50.924;11.598;2023-01-01T03:23:32;99376.40;;;19.64;35.96
51999;BME280;38015;50.924;11.598;2023-01-01T03:26:02;99374.97;;;19.77;35.71
51999;BME280;38015;50.924;11.598;2023-01-01T03:28:32;99373.93;;;19.75;35.76
51999;BME280;38015;50.924;11.598;2023-01-01T03:31:00;99361.93;;;19.59;36.03
51999;BME280;38015;50.924;11.598;2023-01-01T03:33:33;99377.40;;;19.72;35.80
51999;BME280;38015;50.924;11.598;2023-01-01T03:36:04;99379.08;;;19.55;36.11
51999;BME280;38015;50.924;11.598;2023-01-01T03:38:35;99374.60;;;19.59;36.03
51999;BME280;38015;50.924;11.598;2023-01-01T03:41:04;99379.77;;;19.72;35.78
51999;BME280;38015;50.924;11.598;2023-01-01T03:43:38;99379.86;;;19.74;35.73
51999;BME280;38015;50.924;11.598;2023-01-01T03:46:03;99379.50;;;19.78;35.68
51999;BME280;38015;50.924;11.598;2023-01-01T03:48:33;99378.18;;;19.75;35.71
51999;BME280;38015;50.924;11.598;2023-01-01T03:51:10;99375.71;;;19.73;35.79
51999;BME280;38015;50.924;11.598;2023-01-01T03:53:38;99373.83;;;19.78;35.71
51999;BME280;38015;50.924;11.598;2023-01-01T03:56:10;99377.28;;;19.77;35.71
51999;BME280;38015;50.924;11.598;2023-01-01T03:58:40;99374.68;;;19.72;35.86
51999;BME280;38015;50.924;11.598;2023-01-01T04:01:10;99373.28;;;19.64;35.98
51999;BME280;38015;50.924;11.598;2023-01-01T04:03:37;99376.03;;;19.72;35.86
51999;BME280;38015;50.924;11.598;2023-01-01T04:06:08;99372.96;;;19.74;35.83
51999;BME280;38015;50.924;11.598;2023-01-01T04:08:37;99376.64;;;19.70;35.91
51999;BME280;38015;50.924;11.598;2023-01-01T04:11:14;99378.25;;;19.76;35.78
51999;BME280;38015;50.924;11.598;2023-01-01T04:13:45;99380.48;;;19.75;35.81
51999;BME280;38015;50.924;11.598;2023-01-01T04:16:09;99380.80;;;19.75;35.80
51999;BME280;38015;50.924;11.598;2023-01-01T04:18:39;99379.85;;;19.82;35.64
51999;BME280;38015;50.924;11.598;2023-01-01T04:21:11;99392.06;;;19.69;35.92
51999;BME280;38015;50.924;11.598;2023-01-01T04:23:40;99386.76;;;19.82;35.66
51999;BME280;38015;50.924;11.598;2023-01-01T04:26:12;99378.15;;;19.75;35.81
51999;BME280;38015;50.924;11.598;2023-01-01T04:28:41;99377.83;;;19.72;35.86
51999;BME280;38015;50.924;11.598;2023-01-01T04:31:11;99371.98;;;19.71;35.89
51999;BME280;38015;50.924;11.598;2023-01-01T04:33:42;99360.30;;;19.72;35.87
51999;BME280;38015;50.924;11.598;2023-01-01T04:36:12;99360.37;;;19.74;35.83
51999;BME280;38015;50.924;11.598;2023-01-01T04:38:43;99356.39;;;19.75;35.79
51999;BME280;38015;50.924;11.598;2023-01-01T04:41:13;99368.98;;;19.85;35.63
51999;BME280;38015;50.924;11.598;2023-01-01T04:43:46;99368.29;;;19.76;35.79
51999;BME280;38015;50.924;11.598;2023-01-01T04:46:15;99373.15;;;19.85;35.62
51999;BME280;38015;50.924;11.598;2023-01-01T04:48:46;99380.06;;;19.80;35.72
51999;BME280;38015;50.924;11.598;2023-01-01T04:51:17;99376.64;;;19.70;35.95
51999;BME280;38015;50.924;11.598;2023-01-01T04:53:47;99373.92;;;19.80;35.72
51999;BME280;38015;50.924;11.598;2023-01-01T04:56:18;99378.40;;;19.65;36.06
51999;BME280;38015;50.924;11.598;2023-01-01T04:58:48;99377.20;;;19.71;35.92
51999;BME280;38015;50.924;11.598;2023-01-01T05:01:20;99383.21;;;19.71;35.91
51999;BME280;38015;50.924;11.598;2023-01-01T05:03:48;99391.26;;;19.79;35.76
51999;BME280;38015;50.924;11.598;2023-01-01T05:06:19;99392.13;;;19.66;36.01
51999;BME280;38015;50.924;11.598;2023-01-01T05:08:51;99392.08;;;19.87;35.59
51999;BME280;38015;50.924;11.598;2023-01-01T05:11:21;99400.26;;;19.81;35.71
51999;BME280;38015;50.924;11.598;2023-01-01T05:13:52;99398.84;;;19.74;35.86
51999;BME280;38015;50.924;11.598;2023-01-01T05:16:22;99398.88;;;19.74;35.84
51999;BME280;38015;50.924;11.598;2023-01-01T05:18:51;99394.40;;;19.78;35.78
51999;BME280;38015;50.924;11.598;2023-01-01T05:21:23;99395.61;;;19.82;35.69
51999;BME280;38015;50.924;11.598;2023-01-01T05:23:53;99391.81;;;19.77;35.80
51999;BME280;38015;50.924;11.598;2023-01-01T05:26:25;99391.99;;;19.84;35.63
51999;BME280;38015;50.924;11.598;2023-01-01T05:28:54;99393.74;;;19.73;35.86
51999;BME280;38015;50.924;11.598;2023-01-01T05:31:26;99390.47;;;19.79;35.73
51999;BME280;38015;50.924;11.598;2023-01-01T05:33:54;99392.78;;;19.83;35.64
51999;BME280;38015;50.924;11.598;2023-01-01T05:36:27;99401.61;;;19.74;35.85
51999;BME280;38015;50.924;11.598;2023-01-01T05:38:56;99404.89;;;19.74;35.86
51999;BME280;38015;50.924;11.598;2023-01-01T05:41:26;99403.54;;;19.80;35.77
51999;BME280;38015;50.924;11.598;2023-01-01T05:43:57;99403.70;;;19.81;35.72
51999;BME280;38015;50.924;11.598;2023-01-01T05:46:27;99405.85;;;19.69;35.99
51999;BME280;38015;50.924;11.598;2023-01-01T05:48:58;99409.25;;;19.74;35.87
51999;BME280;38015;50.924;11.598;2023-01-01T05:51:29;99403.78;;;19.74;35.90
51999;BME280;38015;50.924;11.598;2023-01-01T05:54:00;99401.81;;;19.64;36.12
51999;BME280;38015;50.924;11.598;2023-01-01T05:56:29;99401.48;;;19.70;36.02
51999;BME280;38015;50.924;11.598;2023-01-01T05:59:00;99394.21;;;19.69;36.02
51999;BME280;38015;50.924;11.598;2023-01-01T06:01:30;99397.80;;;19.81;35.82
51999;BME280;38015;50.924;11.598;2023-01-01T06:04:00;99390.07;;;19.75;35.90
51999;BME280;38015;50.924;11.598;2023-01-01T06:06:31;99406.13;;;19.85;35.71
51999;BME280;38015;50.924;11.598;2023-01-01T06:09:03;99417.38;;;19.85;35.68
51999;BME280;38015;50.924;11.598;2023-01-01T06:11:32;99422.03;;;19.79;35.83
51999;BME280;38015;50.924;11.598;2023-01-01T06:14:02;99428.61;;;19.74;35.93
51999;BME280;38015;50.924;11.598;2023-01-01T06:16:33;99439.16;;;19.81;35.81
51999;BME280;38015;50.924;11.598;2023-01-01T06:19:03;99447.82;;;19.66;36.12
51999;BME280;38015;50.924;11.598;2023-01-01T06:21:33;99453.93;;;19.90;35.66
51999;BME280;38015;50.924;11.598;2023-01-01T06:24:05;99460.63;;;19.70;36.06
51999;BME280;38015;50.924;11.598;2023-01-01T06:26:34;99465.73;;;19.78;35.89
51999;BME280;38015;50.924;11.598;2023-01-01T06:29:05;99475.73;;;19.95;35.60
51999;BME280;38015;50.924;11.598;2023-01-01T06:31:35;99470.28;;;19.79;35.86
51999;BME280;38015;50.924;11.598;2023-01-01T06:34:06;99480.07;;;19.78;35.90
51999;BME280;38015;50.924;11.598;2023-01-01T06:36:36;99475.80;;;19.85;35.75
51999;BME280;38015;50.924;11.598;2023-01-01T06:39:07;99479.53;;;19.75;35.98
51999;BME280;38015;50.924;11.598;2023-01-01T06:41:37;99485.92;;;19.74;36.00
51999;BME280;38015;50.924;11.598;2023-01-01T06:44:08;99485.54;;;19.79;35.89
51999;BME280;38015;50.924;11.598;2023-01-01T06:46:38;99501.56;;;19.69;36.12
51999;BME280;38015;50.924;11.598;2023-01-01T06:49:10;99507.32;;;19.76;35.98
51999;BME280;38015;50.924;11.598;2023-01-01T06:51:41;99506.70;;;19.74;35.97
51999;BME280;38015;50.924;11.598;2023-01-01T06:54:11;99497.60;;;19.87;35.72
51999;BME280;38015;50.924;11.598;2023-01-01T06:56:40;99499.05;;;19.84;35.77
51999;BME280;38015;50.924;11.598;2023-01-01T06:59:11;99510.85;;;19.80;35.87
51999;BME280;38015;50.924;11.598;2023-01-01T07:01:41;99500.12;;;19.79;35.90
51999;BME280;38015;50.924;11.598;2023-01-01T07:04:14;99502.84;;;19.73;36.03
51999;BME280;38015;50.924;11.598;2023-01-01T07:06:42;99510.04;;;19.81;35.87
51999;BME280;38015;50.924;11.598;2023-01-01T07:09:12;99512.79;;;19.80;35.86
51999;BME280;38015;50.924;11.598;2023-01-01T07:11:43;99512.45;;;19.82;35.84
51999;BME280;38015;50.924;11.598;2023-01-01T07:14:13;99515.92;;;19.85;35.72
51999;BME280;38015;50.924;11.598;2023-01-01T07:16:44;99522.48;;;19.68;36.09
51999;BME280;38015;50.924;11.598;2023-01-01T07:19:14;99525.31;;;19.78;35.90
51999;BME280;38015;50.924;11.598;2023-01-01T07:21:48;99531.98;;;19.76;35.95
51999;BME280;38015;50.924;11.598;2023-01-01T07:24:15;99531.85;;;19.83;35.84
51999;BME280;38015;50.924;11.598;2023-01-01T07:26:45;99534.12;;;19.90;35.66
51999;BME280;38015;50.924;11.598;2023-01-01T07:29:16;99529.94;;;19.87;35.71
51999;BME280;38015;50.924;11.598;2023-01-01T07:31:46;99533.04;;;19.89;35.68
51999;BME280;38015;50.924;11.598;2023-01-01T07:34:17;99541.58;;;19.88;35.71
51999;BME280;38015;50.924;11.598;2023-01-01T07:36:47;99551.99;;;19.80;35.88
51999;BME280;38015;50.924;11.598;2023-01-01T07:39:18;99540.93;;;19.95;35.56
51999;BME280;38015;50.924;11.598;2023-01-01T07:41:48;99545.96;;;19.84;35.76
51999;BME280;38015;50.924;11.598;2023-01-01T07:44:18;99550.52;;;19.87;35.69
51999;BME280;38015;50.924;11.598;2023-01-01T07:46:49;99556.65;;;19.97;35.51
51999;BME280;38015;50.924;11.598;2023-01-01T07:49:19;99553.55;;;19.88;35.69
51999;BME280;38015;50.924;11.598;2023-01-01T07:51:49;99553.73;;;19.87;35.75
51999;BME280;38015;50.924;11.598;2023-01-01T07:54:21;99548.78;;;19.68;36.12
51999;BME280;38015;50.924;11.598;2023-01-01T07:56:50;99543.67;;;19.70;36.11
51999;BME280;38015;50.924;11.598;2023-01-01T07:59:21;99549.56;;;19.86;35.76
51999;BME280;38015;50.924;11.598;2023-01-01T08:01:52;99543.43;;;19.82;35.85
51999;BME280;38015;50.924;11.598;2023-01-01T08:04:22;99551.42;;;19.91;35.66
51999;BME280;38015;50.924;11.598;2023-01-01T08:06:52;99552.26;;;19.81;35.88
51999;BME280;38015;50.924;11.598;2023-01-01T08:09:23;99561.13;;;19.87;35.73
51999;BME280;38015;50.924;11.598;2023-01-01T08:11:53;99559.82;;;19.85;35.80
51999;BME280;38015;50.924;11.598;2023-01-01T08:14:24;99565.83;;;19.87;35.79
51999;BME280;38015;50.924;11.598;2023-01-01T08:16:54;99564.40;;;19.94;35.60
51999;BME280;38015;50.924;11.598;2023-01-01T08:19:24;99568.75;;;19.97;35.53
51999;BME280;38015;50.924;11.598;2023-01-01T08:21:55;99563.81;;;19.91;35.62
51999;BME280;38015;50.924;11.598;2023-01-01T08:24:26;99564.99;;;19.95;35.57
51999;BME280;38015;50.924;11.598;2023-01-01T08:26:56;99577.16;;;19.87;35.73
51999;BME280;38015;50.924;11.598;2023-01-01T08:29:27;99588.64;;;19.93;35.59
51999;BME280;38015;50.924;11.598;2023-01-01T08:31:57;99588.96;;;20.03;35.37
51999;BME280;38015;50.924;11.598;2023-01-01T08:34:27;99589.81;;;19.92;35.62
51999;BME280;38015;50.924;11.598;2023-01-01T08:36:58;99598.65;;;19.89;35.67
51999;BME280;38015;50.924;11.598;2023-01-01T08:39:29;99607.86;;;19.92;35.61
51999;BME280;38015;50.924;11.598;2023-01-01T08:41:59;99602.57;;;19.90;35.62
51999;BME280;38015;50.924;11.598;2023-01-01T08:44:29;99607.57;;;19.74;35.93
51999;BME280;38015;50.924;11.598;2023-01-01T08:47:00;99611.24;;;19.84;35.76
51999;BME280;38015;50.924;11.598;2023-01-01T08:49:30;99618.20;;;19.87;35.68
51999;BME280;38015;50.924;11.598;2023-01-01T08:52:00;99617.02;;;19.91;35.59
51999;BME280;38015;50.924;11.598;2023-01-01T08:54:31;99619.08;;;19.87;35.66
51999;BME280;38015;50.924;11.598;2023-01-01T08:57:01;99625.29;;;19.90;35.61
51999;BME280;38015;50.924;11.598;2023-01-01T08:59:31;99633.79;;;20.10;35.21
51999;BME280;38015;50.924;11.598;2023-01-01T09:02:01;99619.87;;;20.01;35.37
51999;BME280;38015;50.924;11.598;2023-01-01T09:04:32;99617.95;;;19.86;35.64
51999;BME280;38015;50.924;11.598;2023-01-01T09:07:03;99628.95;;;19.86;35.66
51999;BME280;38015;50.924;11.598;2023-01-01T09:09:33;99626.71;;;19.85;35.68
51999;BME280;38015;50.924;11.598;2023-01-01T09:12:04;99632.49;;;19.93;35.53
51999;BME280;38015;50.924;11.598;2023-01-01T09:14:34;99639.08;;;19.96;35.50
51999;BME280;38015;50.924;11.598;2023-01-01T09:17:04;99640.63;;;19.91;35.56
51999;BME280;38015;50.924;11.598;2023-01-01T09:19:34;99651.23;;;20.00;35.39
51999;BME280;38015;50.924;11.598;2023-01-01T09:22:08;99659.89;;;19.95;35.49
51999;BME280;38015;50.924;11.598;2023-01-01T09:24:35;99654.86;;;20.01;35.35
51999;BME280;38015;50.924;11.598;2023-01-01T09:27:06;99651.20;;;19.90;35.57
51999;BME280;38015;50.924;11.598;2023-01-01T09:29:36;99654.71;;;19.89;35.62
51999;BME280;38015;50.924;11.598;2023-01-01T09:32:07;99654.66;;;19.88;35.63
51999;BME280;38015;50.924;11.598;2023-01-01T09:34:37;99644.39;;;19.95;35.50
51999;BME280;38015;50.924;11.598;2023-01-01T09:37:08;99643.36;;;20.02;35.32
51999;BME280;38015;50.924;11.598;2023-01-01T09:39:38;99640.69;;;19.85;35.63
51999;BME280;38015;50.924;11.598;2023-01-01T09:42:20;99638.15;;;20.05;35.24
51999;BME280;38015;50.924;11.598;2023-01-01T09:44:48;99648.24;;;19.96;35.42
51999;BME280;38015;50.924;11.598;2023-01-01T09:47:17;99637.58;;;19.80;35.74
51999;BME280;38015;50.924;11.598;2023-01-01T09:49:43;99640.65;;;20.00;35.34
51999;BME280;38015;50.924;11.598;2023-01-01T09:52:12;99644.32;;;19.96;35.41
51999;BME280;38015;50.924;11.598;2023-01-01T09:54:46;99649.02;;;19.89;35.58
51999;BME280;38015;50.924;11.598;2023-01-01T09:57:12;99651.54;;;19.91;35.51
51999;BME280;38015;50.924;11.598;2023-01-01T09:59:41;99657.56;;;19.97;35.38
51999;BME280;38015;50.924;11.598;2023-01-01T10:02:21;99657.04;;;19.88;35.55
51999;BME280;38015;50.924;11.598;2023-01-01T10:04:53;99666.36;;;19.91;35.51
51999;BME280;38015;50.924;11.598;2023-01-01T10:07:18;99659.01;;;20.02;35.31
51999;BME280;38015;50.924;11.598;2023-01-01T10:09:49;99646.53;;;19.91;35.48
51999;BME280;38015;50.924;11.598;2023-01-01T10:12:20;99657.46;;;19.87;35.61
51999;BME280;38015;50.924;11.598;2023-01-01T10:14:47;99671.07;;;19.99;35.33
51999;BME280;38015;50.924;11.598;2023-01-01T10:17:18;99681.21;;;19.97;35.39
51999;BME280;38015;50.924;11.598;2023-01-01T10:19:48;99683.02;;;19.88;35.57
51999;BME280;38015;50.924;11.598;2023-01-01T10:22:19;99686.93;;;19.86;35.61
51999;BME280;38015;50.924;11.598;2023-01-01T10:24:49;99683.39;;;19.98;35.39
51999;BME280;38015;50.924;11.598;2023-01-01T10:27:25;99678.13;;;19.95;35.39
51999;BME280;38015;50.924;11.598;2023-01-01T10:29:49;99666.84;;;20.00;35.33
51999;BME280;38015;50.924;11.598;2023-01-01T10:32:19;99651.28;;;19.97;35.34
51999;BME280;38015;50.924;11.598;2023-01-01T10:34:49;99657.04;;;19.92;35.48
51999;BME280;38015;50.924;11.598;2023-01-01T10:37:19;99659.86;;;19.95;35.40
51999;BME280;38015;50.924;11.598;2023-01-01T10:39:49;99657.59;;;19.96;35.41
51999;BME280;38015;50.924;11.598;2023-01-01T10:42:19;99642.74;;;19.99;35.33
51999;BME280;38015;50.924;11.598;2023-01-01T10:44:51;99648.56;;;19.89;35.51
51999;BME280;38015;50.924;11.598;2023-01-01T10:47:24;99637.84;;;19.79;35.71
51999;BME280;38015;50.924;11.598;2023-01-01T10:49:54;99638.79;;;19.90;35.51
51999;BME280;38015;50.924;11.598;2023-01-01T10:52:25;99644.46;;;19.87;35.56
51999;BME280;38015;50.924;11.598;2023-01-01T10:54:54;99643.70;;;19.84;35.63
51999;BME280;38015;50.924;11.598;2023-01-01T10:57:29;99653.58;;;19.84;35.64
51999;BME280;38015;50.924;11.598;2023-01-01T10:59:53;99653.58;;;19.88;35.53
51999;BME280;38015;50.924;11.598;2023-01-01T11:02:25;99665.15;;;19.85;35.62
51999;BME280;38015;50.924;11.598;2023-01-01T11:07:29;99667.67;;;19.80;35.73
51999;BME280;38015;50.924;11.598;2023-01-01T11:09:58;99669.67;;;19.77;35.78
51999;BME280;38015;50.924;11.598;2023-01-01T11:12:28;99667.82;;;19.72;35.91
51999;BME280;38015;50.924;11.598;2023-01-01T11:14:56;99664.51;;;19.74;35.85
51999;BME280;38015;50.924;11.598;2023-01-01T11:17:27;99667.63;;;19.72;35.91
51999;BME280;38015;50.924;11.598;2023-01-01T11:19:57;99662.12;;;19.73;35.85
51999;BME280;38015;50.924;11.598;2023-01-01T11:22:35;99658.88;;;19.65;36.03
51999;BME280;38015;50.924;11.598;2023-01-01T11:24:59;99655.35;;;19.72;35.88
51999;BME280;38015;50.924;11.598;2023-01-01T11:27:27;99655.84;;;19.65;36.00
51999;BME280;38015;50.924;11.598;2023-01-01T11:32:33;99630.51;;;19.64;36.08
51999;BME280;38015;50.924;11.598;2023-01-01T11:35:01;99629.84;;;19.64;36.05
51999;BME280;38015;50.924;11.598;2023-01-01T11:37:31;99625.62;;;19.63;36.10
51999;BME280;38015;50.924;11.598;2023-01-01T11:40:02;99628.92;;;19.63;36.09
51999;BME280;38015;50.924;11.598;2023-01-01T11:42:33;99630.27;;;19.66;36.04
51999;BME280;38015;50.924;11.598;2023-01-01T11:45:03;99632.95;;;19.67;36.04
51999;BME280;38015;50.924;11.598;2023-01-01T11:47:34;99631.66;;;19.69;35.93
51999;BME280;38015;50.924;11.598;2023-01-01T11:50:10;99631.56;;;19.64;36.07
51999;BME280;38015;50.924;11.598;2023-01-01T11:52:36;99638.39;;;19.67;36.00
51999;BME280;38015;50.924;11.598;2023-01-01T11:55:13;99626.63;;;19.58;36.20
51999;BME280;38015;50.924;11.598;2023-01-01T11:57:34;99628.31;;;19.72;35.92
51999;BME280;38015;50.924;11.598;2023-01-01T12:00:05;99636.69;;;19.67;36.00
51999;BME280;38015;50.924;11.598;2023-01-01T12:02:39;99636.95;;;19.66;36.05
51999;BME280;38015;50.924;11.598;2023-01-01T12:05:12;99636.19;;;19.64;36.08
51999;BME280;38015;50.924;11.598;2023-01-01T12:07:37;99625.21;;;19.75;35.90
51999;BME280;38015;50.924;11.598;2023-01-01T12:10:14;99621.73;;;19.65;36.07
51999;BME280;38015;50.924;11.598;2023-01-01T12:12:40;99616.43;;;19.63;36.12
51999;BME280;38015;50.924;11.598;2023-01-01T12:15:15;99609.15;;;19.62;36.17
51999;BME280;38015;50.924;11.598;2023-01-01T12:17:41;99608.74;;;19.62;36.13
51999;BME280;38015;50.924;11.598;2023-01-01T12:20:13;99607.15;;;19.68;35.99
51999;BME280;38015;50.924;11.598;2023-01-01T12:22:39;99600.06;;;19.70;35.96
51999;BME280;38015;50.924;11.598;2023-01-01T12:25:11;99600.93;;;19.65;36.13
51999;BME280;38015;50.924;11.598;2023-01-01T12:27:50;99603.01;;;19.66;36.04
51999;BME280;38015;50.924;11.598;2023-01-01T12:30:18;99608.22;;;19.68;36.03
51999;BME280;38015;50.924;11.598;2023-01-01T12:32:55;99610.11;;;19.63;36.12
51999;BME280;38015;50.924;11.598;2023-01-01T12:35:19;99614.43;;;19.63;36.10
51999;BME280;38015;50.924;11.598;2023-01-01T12:37:49;99610.58;;;19.67;36.02
51999;BME280;38015;50.924;11.598;2023-01-01T12:42:51;99605.26;;;19.65;36.06
51999;BME280;38015;50.924;11.598;2023-01-01T12:45:25;99606.69;;;19.66;36.02
51999;BME280;38015;50.924;11.598;2023-01-01T12:47:50;99611.67;;;19.64;36.05
51999;BME280;38015;50.924;11.598;2023-01-01T12:50:20;99618.76;;;19.65;36.02
51999;BME280;38015;50.924;11.598;2023-01-01T12:52:52;99625.24;;;19.68;35.95
51999;BME280;38015;50.924;11.598;2023-01-01T12:55:23;99623.01;;;19.72;35.88
51999;BME280;38015;50.924;11.598;2023-01-01T12:57:49;99634.28;;;19.65;36.03
51999;BME280;38015;50.924;11.598;2023-01-01T13:00:18;99635.56;;;19.64;36.06
51999;BME280;38015;50.924;11.598;2023-01-01T13:02:49;99629.03;;;19.57;36.17
51999;BME280;38015;50.924;11.598;2023-01-01T13:05:21;99624.00;;;19.56;36.20
51999;BME280;38015;50.924;11.598;2023-01-01T13:07:51;99625.22;;;19.63;36.07
51999;BME280;38015;50.924;11.598;2023-01-01T13:10:24;99640.96;;;19.66;36.05
51999;BME280;38015;50.924;11.598;2023-01-01T13:12:48;99639.00;;;19.62;36.07
51999;BME280;38015;50.924;11.598;2023-01-01T13:17:51;99656.87;;;19.65;36.09
51999;BME280;38015;50.924;11.598;2023-01-01T13:20:23;99659.50;;;19.61;36.12